sensor_id;sensor_type;location;lat;lon;timestamp;temperature;humidity
8424;DHT22;4249;49.072;9.770;2022-07-29T00:00:25;18.70;99.90
8424;DHT22;4249;49.072;9.770;2022-07-29T00:03:12;18.60;1.00
8424;DHT22;4249;49.072;9.770;2022-07-29T00:06:00;18.60;1.00
8424;DHT22;4249;49.072;9.770;2022-07-29T00:08:47;18.50;99.90
8424;DHT22;4249;49.072;9.770;2022-07-29T00:11:34;18.40;1.00
8424;DHT22;4249;49.072;9.770;2022-07-29T00:14:21;18.30;99.90
8424;DHT22;4249;49.072;9.770;2022-07-29T00:17:10;18.20;99.90
8424;DHT22;4249;49.072;9.770;2022-07-29T00:19:57;18.20;99.90
8424;DHT22;4249;49.072;9.770;2022-07-29T00:22:44;18.10;1.00
8424;DHT22;4249;49.072;9.770;2022-07-29T00:25:31;18.10;1.00
8424;DHT22;4249;49.072;9.770;2022-07-29T00:28:19;18.10;99.90
8424;DHT22;4249;49.072;9.770;2022-07-29T00:31:06;18.10;99.90
8424;DHT22;4249;49.072;9.770;2022-07-29T00:33:55;18.10;99.90
8424;DHT22;4249;49.072;9.770;2022-07-29T00:36:42;18.00;1.00
8424;DHT22;4249;49.072;9.770;2022-07-29T00:39:29;18.00;1.00
8424;DHT22;4249;49.072;9.770;2022-07-29T00:42:16;18.00;1.00
8424;DHT22;4249;49.072;9.770;2022-07-29T00:45:04;18.00;1.00
8424;DHT22;4249;49.072;9.770;2022-07-29T00:47:51;18.00;1.00
8424;DHT22;4249;49.072;9.770;2022-07-29T00:50:40;18.00;1.00
8424;DHT22;4249;49.072;9.770;2022-07-29T00:53:27;17.90;1.00
8424;DHT22;4249;49.072;9.770;2022-07-29T00:56:14;17.90;1.00
8424;DHT22;4249;49.072;9.770;2022-07-29T00:59:01;17.90;1.00
8424;DHT22;4249;49.072;9.770;2022-07-29T01:01:49;17.80;1.00
8424;DHT22;4249;49.072;9.770;2022-07-29T01:04:36;17.70;1.00
8424;DHT22;4249;49.072;9.770;2022-07-29T01:07:25;17.60;1.00
8424;DHT22;4249;49.072;9.770;2022-07-29T01:10:14;17.60;5.10
8424;DHT22;4249;49.072;9.770;2022-07-29T01:13:03;17.50;99.90
8424;DHT22;4249;49.072;9.770;2022-07-29T01:15:56;17.50;99.90
8424;DHT22;4249;49.072;9.770;2022-07-29T01:18:47;17.50;99.90
8424;DHT22;4249;49.072;9.770;2022-07-29T01:21:49;17.40;99.90
8424;DHT22;4249;49.072;9.770;2022-07-29T01:24:55;17.30;99.90
8424;DHT22;4249;49.072;9.770;2022-07-29T01:27:59;17.30;99.90
8424;DHT22;4249;49.072;9.770;2022-07-29T01:30:51;17.20;99.90
8424;DHT22;4249;49.072;9.770;2022-07-29T01:33:43;17.20;1.00
8424;DHT22;4249;49.072;9.770;2022-07-29T01:36:43;17.20;1.00
8424;DHT22;4249;49.072;9.770;2022-07-29T01:39:35;17.20;1.00
8424;DHT22;4249;49.072;9.770;2022-07-29T01:42:27;17.20;1.00
8424;DHT22;4249;49.072;9.770;2022-07-29T01:45:20;17.20;1.00
8424;DHT22;4249;49.072;9.770;2022-07-29T01:48:15;17.20;1.00
8424;DHT22;4249;49.072;9.770;2022-07-29T01:51:05;17.20;1.00
8424;DHT22;4249;49.072;9.770;2022-07-29T01:53:59;17.20;1.00
8424;DHT22;4249;49.072;9.770;2022-07-29T01:56:51;17.10;1.00
8424;DHT22;4249;49.072;9.770;2022-07-29T01:59:41;17.10;1.00
8424;DHT22;4249;49.072;9.770;2022-07-29T02:02:30;17.00;1.00
8424;DHT22;4249;49.072;9.770;2022-07-29T02:05:21;17.00;1.00
8424;DHT22;4249;49.072;9.770;2022-07-29T02:08:11;16.80;1.00
8424;DHT22;4249;49.072;9.770;2022-07-29T02:11:00;16.80;1.00
8424;DHT22;4249;49.072;9.770;2022-07-29T02:13:48;16.70;1.00
8424;DHT22;4249;49.072;9.770;2022-07-29T02:16:37;16.70;1.00
8424;DHT22;4249;49.072;9.770;2022-07-29T02:19:27;16.70;1.00
8424;DHT22;4249;49.072;9.770;2022-07-29T02:22:18;16.60;1.00
8424;DHT22;4249;49.072;9.770;2022-07-29T02:25:08;16.60;1.00
8424;DHT22;4249;49.072;9.770;2022-07-29T02:27:55;16.50;1.00
8424;DHT22;4249;49.072;9.770;2022-07-29T02:30:44;16.50;1.00
8424;DHT22;4249;49.072;9.770;2022-07-29T02:33:33;16.40;1.00
8424;DHT22;4249;49.072;9.770;2022-07-29T02:36:22;16.40;1.00
8424;DHT22;4249;49.072;9.770;2022-07-29T02:39:12;16.40;1.00
8424;DHT22;4249;49.072;9.770;2022-07-29T02:42:03;16.40;1.00
8424;DHT22;4249;49.072;9.770;2022-07-29T02:44:51;16.40;1.00
8424;DHT22;4249;49.072;9.770;2022-07-29T02:47:42;16.30;1.00
8424;DHT22;4249;49.072;9.770;2022-07-29T02:50:34;16.40;1.00
8424;DHT22;4249;49.072;9.770;2022-07-29T02:53:23;16.30;1.00
8424;DHT22;4249;49.072;9.770;2022-07-29T02:56:14;16.30;1.00
8424;DHT22;4249;49.072;9.770;2022-07-29T02:59:07;16.40;1.00
8424;DHT22;4249;49.072;9.770;2022-07-29T03:01:58;16.40;1.00
8424;DHT22;4249;49.072;9.770;2022-07-29T03:04:46;16.50;1.00
8424;DHT22;4249;49.072;9.770;2022-07-29T03:07:35;16.50;1.00
8424;DHT22;4249;49.072;9.770;2022-07-29T03:10:25;16.40;1.00
8424;DHT22;4249;49.072;9.770;2022-07-29T03:13:16;16.40;1.00
8424;DHT22;4249;49.072;9.770;2022-07-29T03:16:05;16.30;1.00
8424;DHT22;4249;49.072;9.770;2022-07-29T03:18:52;16.30;1.00
8424;DHT22;4249;49.072;9.770;2022-07-29T03:21:40;16.30;1.00
8424;DHT22;4249;49.072;9.770;2022-07-29T03:24:29;16.30;1.00
8424;DHT22;4249;49.072;9.770;2022-07-29T03:27:17;16.20;1.00
8424;DHT22;4249;49.072;9.770;2022-07-29T03:30:07;16.20;1.00
8424;DHT22;4249;49.072;9.770;2022-07-29T03:32:55;16.20;1.00
8424;DHT22;4249;49.072;9.770;2022-07-29T03:35:43;16.10;1.00
8424;DHT22;4249;49.072;9.770;2022-07-29T03:38:34;16.00;1.00
8424;DHT22;4249;49.072;9.770;2022-07-29T03:41:22;16.00;1.00
8424;DHT22;4249;49.072;9.770;2022-07-29T03:44:12;15.90;1.00
8424;DHT22;4249;49.072;9.770;2022-07-29T03:47:03;15.90;1.00
8424;DHT22;4249;49.072;9.770;2022-07-29T03:49:54;15.90;1.00
8424;DHT22;4249;49.072;9.770;2022-07-29T03:52:43;15.80;1.00
8424;DHT22;4249;49.072;9.770;2022-07-29T03:55:43;15.80;1.00
8424;DHT22;4249;49.072;9.770;2022-07-29T03:58:31;15.80;1.00
8424;DHT22;4249;49.072;9.770;2022-07-29T04:01:20;15.70;1.00
8424;DHT22;4249;49.072;9.770;2022-07-29T04:04:09;15.80;1.00
8424;DHT22;4249;49.072;9.770;2022-07-29T04:06:56;15.70;1.00
8424;DHT22;4249;49.072;9.770;2022-07-29T04:09:44;15.70;1.00
8424;DHT22;4249;49.072;9.770;2022-07-29T04:12:31;15.70;1.00
8424;DHT22;4249;49.072;9.770;2022-07-29T04:15:18;15.80;1.00
8424;DHT22;4249;49.072;9.770;2022-07-29T04:18:05;15.90;1.00
8424;DHT22;4249;49.072;9.770;2022-07-29T04:20:54;16.00;1.00
8424;DHT22;4249;49.072;9.770;2022-07-29T04:23:41;16.00;1.00
8424;DHT22;4249;49.072;9.770;2022-07-29T04:26:31;16.10;1.00
8424;DHT22;4249;49.072;9.770;2022-07-29T04:29:18;16.20;1.00
8424;DHT22;4249;49.072;9.770;2022-07-29T04:32:07;16.30;1.00
8424;DHT22;4249;49.072;9.770;2022-07-29T04:34:54;16.30;1.00
8424;DHT22;4249;49.072;9.770;2022-07-29T04:37:43;16.30;1.00
8424;DHT22;4249;49.072;9.770;2022-07-29T04:40:30;16.40;1.00
8424;DHT22;4249;49.072;9.770;2022-07-29T04:43:18;16.50;1.00
8424;DHT22;4249;49.072;9.770;2022-07-29T04:46:06;16.60;1.00
8424;DHT22;4249;49.072;9.770;2022-07-29T04:48:53;16.60;1.00
8424;DHT22;4249;49.072;9.770;2022-07-29T04:51:40;16.70;1.00
8424;DHT22;4249;49.072;9.770;2022-07-29T04:54:29;16.80;1.00
8424;DHT22;4249;49.072;9.770;2022-07-29T04:57:17;16.90;1.00
8424;DHT22;4249;49.072;9.770;2022-07-29T05:00:06;17.00;1.00
8424;DHT22;4249;49.072;9.770;2022-07-29T05:02:53;16.90;1.00
8424;DHT22;4249;49.072;9.770;2022-07-29T05:05:41;16.90;1.00
8424;DHT22;4249;49.072;9.770;2022-07-29T05:08:28;17.00;1.00
8424;DHT22;4249;49.072;9.770;2022-07-29T05:11:17;17.10;1.00
8424;DHT22;4249;49.072;9.770;2022-07-29T05:14:04;17.10;1.00
8424;DHT22;4249;49.072;9.770;2022-07-29T05:16:51;17.10;1.00
8424;DHT22;4249;49.072;9.770;2022-07-29T05:19:42;17.20;1.00
8424;DHT22;4249;49.072;9.770;2022-07-29T05:22:29;17.30;1.00
8424;DHT22;4249;49.072;9.770;2022-07-29T05:25:17;17.40;1.00
8424;DHT22;4249;49.072;9.770;2022-07-29T05:28:05;17.50;1.00
8424;DHT22;4249;49.072;9.770;2022-07-29T05:30:53;17.70;1.00
8424;DHT22;4249;49.072;9.770;2022-07-29T05:33:40;17.80;1.00
8424;DHT22;4249;49.072;9.770;2022-07-29T05:36:27;18.00;1.00
8424;DHT22;4249;49.072;9.770;2022-07-29T05:39:14;18.20;99.90
8424;DHT22;4249;49.072;9.770;2022-07-29T05:42:02;18.40;99.90
8424;DHT22;4249;49.072;9.770;2022-07-29T05:44:51;18.50;86.00
8424;DHT22;4249;49.072;9.770;2022-07-29T05:47:38;18.50;1.00
8424;DHT22;4249;49.072;9.770;2022-07-29T05:50:26;18.50;1.00
8424;DHT22;4249;49.072;9.770;2022-07-29T05:53:13;18.50;1.00
8424;DHT22;4249;49.072;9.770;2022-07-29T05:56:03;18.60;1.00
8424;DHT22;4249;49.072;9.770;2022-07-29T05:58:50;18.80;1.00
8424;DHT22;4249;49.072;9.770;2022-07-29T06:01:39;19.80;1.00
8424;DHT22;4249;49.072;9.770;2022-07-29T06:04:27;22.30;99.90
8424;DHT22;4249;49.072;9.770;2022-07-29T06:07:14;25.40;49.70
8424;DHT22;4249;49.072;9.770;2022-07-29T06:09:42;27.60;1.00
8424;DHT22;4249;49.072;9.770;2022-07-29T06:12:09;28.90;1.00
8424;DHT22;4249;49.072;9.770;2022-07-29T06:14:36;30.40;1.00
8424;DHT22;4249;49.072;9.770;2022-07-29T06:17:05;31.90;1.00
8424;DHT22;4249;49.072;9.770;2022-07-29T06:19:34;33.20;1.00
8424;DHT22;4249;49.072;9.770;2022-07-29T06:22:01;34.20;1.00
8424;DHT22;4249;49.072;9.770;2022-07-29T06:24:47;34.80;1.00
8424;DHT22;4249;49.072;9.770;2022-07-29T06:27:34;34.20;1.00
8424;DHT22;4249;49.072;9.770;2022-07-29T06:30:22;33.30;1.00
8424;DHT22;4249;49.072;9.770;2022-07-29T06:33:16;32.70;1.00
8424;DHT22;4249;49.072;9.770;2022-07-29T06:36:04;32.20;1.00
8424;DHT22;4249;49.072;9.770;2022-07-29T06:38:51;32.50;1.00
8424;DHT22;4249;49.072;9.770;2022-07-29T06:41:39;33.00;1.00
8424;DHT22;4249;49.072;9.770;2022-07-29T06:44:26;33.80;1.00
8424;DHT22;4249;49.072;9.770;2022-07-29T06:47:13;35.20;1.00
8424;DHT22;4249;49.072;9.770;2022-07-29T06:50:02;36.20;1.00
8424;DHT22;4249;49.072;9.770;2022-07-29T06:52:49;37.10;1.00
8424;DHT22;4249;49.072;9.770;2022-07-29T06:55:37;37.50;1.00
8424;DHT22;4249;49.072;9.770;2022-07-29T06:58:24;37.70;1.00
8424;DHT22;4249;49.072;9.770;2022-07-29T07:01:11;37.60;1.00
8424;DHT22;4249;49.072;9.770;2022-07-29T07:03:58;37.30;1.00
8424;DHT22;4249;49.072;9.770;2022-07-29T07:06:47;38.10;1.00
8424;DHT22;4249;49.072;9.770;2022-07-29T07:09:34;38.90;1.00
8424;DHT22;4249;49.072;9.770;2022-07-29T07:12:22;39.70;1.00
8424;DHT22;4249;49.072;9.770;2022-07-29T07:15:09;39.80;1.00
8424;DHT22;4249;49.072;9.770;2022-07-29T07:17:57;39.00;1.00
8424;DHT22;4249;49.072;9.770;2022-07-29T07:20:44;37.10;1.00
8424;DHT22;4249;49.072;9.770;2022-07-29T07:23:33;35.50;1.00
8424;DHT22;4249;49.072;9.770;2022-07-29T07:26:20;33.90;1.00
8424;DHT22;4249;49.072;9.770;2022-07-29T07:29:08;32.50;1.00
8424;DHT22;4249;49.072;9.770;2022-07-29T07:31:55;31.70;1.00
8424;DHT22;4249;49.072;9.770;2022-07-29T07:34:43;31.70;1.00
8424;DHT22;4249;49.072;9.770;2022-07-29T07:37:30;32.70;1.00
8424;DHT22;4249;49.072;9.770;2022-07-29T07:40:19;33.60;1.00
8424;DHT22;4249;49.072;9.770;2022-07-29T07:42:45;34.10;1.00
8424;DHT22;4249;49.072;9.770;2022-07-29T07:45:12;35.00;1.00
8424;DHT22;4249;49.072;9.770;2022-07-29T07:47:39;35.20;1.00
8424;DHT22;4249;49.072;9.770;2022-07-29T07:50:08;34.70;1.00
8424;DHT22;4249;49.072;9.770;2022-07-29T07:52:46;34.20;1.00
8424;DHT22;4249;49.072;9.770;2022-07-29T07:55:13;34.20;1.00
8424;DHT22;4249;49.072;9.770;2022-07-29T07:57:42;35.10;1.00
8424;DHT22;4249;49.072;9.770;2022-07-29T08:00:09;35.40;1.00
8424;DHT22;4249;49.072;9.770;2022-07-29T08:02:37;36.30;1.00
8424;DHT22;4249;49.072;9.770;2022-07-29T08:05:05;36.80;1.00
8424;DHT22;4249;49.072;9.770;2022-07-29T08:07:32;36.20;1.00
8424;DHT22;4249;49.072;9.770;2022-07-29T08:09:59;34.90;1.00
8424;DHT22;4249;49.072;9.770;2022-07-29T08:12:26;33.70;1.00
8424;DHT22;4249;49.072;9.770;2022-07-29T08:14:54;33.10;1.00
8424;DHT22;4249;49.072;9.770;2022-07-29T08:17:21;32.90;1.00
8424;DHT22;4249;49.072;9.770;2022-07-29T08:19:47;32.20;1.00
8424;DHT22;4249;49.072;9.770;2022-07-29T08:22:15;31.50;1.00
8424;DHT22;4249;49.072;9.770;2022-07-29T08:24:42;30.90;1.00
8424;DHT22;4249;49.072;9.770;2022-07-29T08:27:18;30.10;1.00
8424;DHT22;4249;49.072;9.770;2022-07-29T08:29:46;29.60;1.00
8424;DHT22;4249;49.072;9.770;2022-07-29T08:32:14;29.30;1.00
8424;DHT22;4249;49.072;9.770;2022-07-29T08:34:41;29.60;1.00
8424;DHT22;4249;49.072;9.770;2022-07-29T08:37:10;29.70;1.00
8424;DHT22;4249;49.072;9.770;2022-07-29T08:39:38;29.70;1.00
8424;DHT22;4249;49.072;9.770;2022-07-29T08:42:05;29.70;1.00
8424;DHT22;4249;49.072;9.770;2022-07-29T08:44:33;29.90;1.00
8424;DHT22;4249;49.072;9.770;2022-07-29T08:47:01;29.80;1.00
8424;DHT22;4249;49.072;9.770;2022-07-29T08:49:29;29.80;1.00
8424;DHT22;4249;49.072;9.770;2022-07-29T08:51:57;29.60;1.00
8424;DHT22;4249;49.072;9.770;2022-07-29T08:54:25;29.40;1.00
8424;DHT22;4249;49.072;9.770;2022-07-29T08:56:52;29.40;1.00
8424;DHT22;4249;49.072;9.770;2022-07-29T08:59:20;29.60;1.00
8424;DHT22;4249;49.072;9.770;2022-07-29T09:01:50;29.70;1.00
8424;DHT22;4249;49.072;9.770;2022-07-29T09:04:39;29.80;1.00
8424;DHT22;4249;49.072;9.770;2022-07-29T09:07:29;29.70;1.00
8424;DHT22;4249;49.072;9.770;2022-07-29T09:10:16;29.80;1.00
8424;DHT22;4249;49.072;9.770;2022-07-29T09:13:03;29.80;1.00
8424;DHT22;4249;49.072;9.770;2022-07-29T09:15:50;30.00;1.00
8424;DHT22;4249;49.072;9.770;2022-07-29T09:18:39;30.10;1.00
8424;DHT22;4249;49.072;9.770;2022-07-29T09:21:40;30.00;1.00
8424;DHT22;4249;49.072;9.770;2022-07-29T09:24:46;29.70;1.00
8424;DHT22;4249;49.072;9.770;2022-07-29T09:27:34;29.20;1.00
8424;DHT22;4249;49.072;9.770;2022-07-29T09:30:21;28.70;1.00
8424;DHT22;4249;49.072;9.770;2022-07-29T09:33:09;28.80;1.00
8424;DHT22;4249;49.072;9.770;2022-07-29T09:36:02;28.90;1.00
8424;DHT22;4249;49.072;9.770;2022-07-29T09:38:58;29.20;1.00
8424;DHT22;4249;49.072;9.770;2022-07-29T09:41:48;29.60;1.00
8424;DHT22;4249;49.072;9.770;2022-07-29T09:44:43;29.80;1.00
8424;DHT22;4249;49.072;9.770;2022-07-29T09:47:41;30.30;1.00
8424;DHT22;4249;49.072;9.770;2022-07-29T09:50:38;30.80;1.00
8424;DHT22;4249;49.072;9.770;2022-07-29T09:53:33;31.00;1.00
8424;DHT22;4249;49.072;9.770;2022-07-29T09:56:38;30.70;1.00
8424;DHT22;4249;49.072;9.770;2022-07-29T09:59:25;30.50;1.00
8424;DHT22;4249;49.072;9.770;2022-07-29T10:02:14;30.60;1.00
8424;DHT22;4249;49.072;9.770;2022-07-29T10:05:04;30.80;1.00
8424;DHT22;4249;49.072;9.770;2022-07-29T10:07:53;31.00;1.00
8424;DHT22;4249;49.072;9.770;2022-07-29T10:10:41;31.10;1.00
8424;DHT22;4249;49.072;9.770;2022-07-29T10:13:30;31.30;1.00
8424;DHT22;4249;49.072;9.770;2022-07-29T10:16:18;31.20;1.00
8424;DHT22;4249;49.072;9.770;2022-07-29T10:19:05;30.70;1.00
8424;DHT22;4249;49.072;9.770;2022-07-29T10:21:53;30.20;1.00
8424;DHT22;4249;49.072;9.770;2022-07-29T10:24:40;30.20;1.00
8424;DHT22;4249;49.072;9.770;2022-07-29T10:27:27;30.30;1.00
8424;DHT22;4249;49.072;9.770;2022-07-29T10:30:16;30.10;1.00
8424;DHT22;4249;49.072;9.770;2022-07-29T10:33:18;30.00;1.00
8424;DHT22;4249;49.072;9.770;2022-07-29T10:36:31;30.20;1.00
8424;DHT22;4249;49.072;9.770;2022-07-29T10:39:28;30.50;1.00
8424;DHT22;4249;49.072;9.770;2022-07-29T10:42:21;30.40;1.00
8424;DHT22;4249;49.072;9.770;2022-07-29T10:45:10;30.20;1.00
8424;DHT22;4249;49.072;9.770;2022-07-29T10:48:04;30.00;1.00
8424;DHT22;4249;49.072;9.770;2022-07-29T10:50:53;30.30;1.00
8424;DHT22;4249;49.072;9.770;2022-07-29T10:53:48;30.40;1.00
8424;DHT22;4249;49.072;9.770;2022-07-29T10:56:36;30.50;1.00
8424;DHT22;4249;49.072;9.770;2022-07-29T10:59:23;30.70;1.00
8424;DHT22;4249;49.072;9.770;2022-07-29T11:02:45;30.70;1.00
8424;DHT22;4249;49.072;9.770;2022-07-29T11:05:55;30.90;1.00
8424;DHT22;4249;49.072;9.770;2022-07-29T11:08:43;30.80;1.00
8424;DHT22;4249;49.072;9.770;2022-07-29T11:11:31;30.70;1.00
8424;DHT22;4249;49.072;9.770;2022-07-29T11:14:19;30.70;1.00
8424;DHT22;4249;49.072;9.770;2022-07-29T11:17:26;30.70;1.00
8424;DHT22;4249;49.072;9.770;2022-07-29T11:20:33;30.90;1.00
8424;DHT22;4249;49.072;9.770;2022-07-29T11:23:25;30.80;1.00
8424;DHT22;4249;49.072;9.770;2022-07-29T11:26:15;30.40;1.00
8424;DHT22;4249;49.072;9.770;2022-07-29T11:29:04;30.00;1.00
8424;DHT22;4249;49.072;9.770;2022-07-29T11:31:52;29.70;1.00
8424;DHT22;4249;49.072;9.770;2022-07-29T11:34:41;29.60;1.00
8424;DHT22;4249;49.072;9.770;2022-07-29T11:37:29;29.50;1.00
8424;DHT22;4249;49.072;9.770;2022-07-29T11:40:18;29.50;1.00
8424;DHT22;4249;49.072;9.770;2022-07-29T11:43:05;29.70;1.00
8424;DHT22;4249;49.072;9.770;2022-07-29T11:45:52;29.80;1.00
8424;DHT22;4249;49.072;9.770;2022-07-29T11:48:42;29.90;1.00
8424;DHT22;4249;49.072;9.770;2022-07-29T11:51:29;30.00;1.00
8424;DHT22;4249;49.072;9.770;2022-07-29T11:54:23;29.90;1.00
8424;DHT22;4249;49.072;9.770;2022-07-29T11:57:13;29.90;1.00
8424;DHT22;4249;49.072;9.770;2022-07-29T12:00:02;29.60;1.00
8424;DHT22;4249;49.072;9.770;2022-07-29T12:02:50;29.50;1.00
8424;DHT22;4249;49.072;9.770;2022-07-29T12:05:39;29.20;1.00
8424;DHT22;4249;49.072;9.770;2022-07-29T12:08:26;29.10;1.00
8424;DHT22;4249;49.072;9.770;2022-07-29T12:11:17;28.90;1.00
8424;DHT22;4249;49.072;9.770;2022-07-29T12:14:07;28.80;1.00
8424;DHT22;4249;49.072;9.770;2022-07-29T12:16:54;28.50;1.00
8424;DHT22;4249;49.072;9.770;2022-07-29T12:19:42;28.50;1.00
8424;DHT22;4249;49.072;9.770;2022-07-29T12:22:32;28.60;1.00
8424;DHT22;4249;49.072;9.770;2022-07-29T12:25:20;28.50;1.00
8424;DHT22;4249;49.072;9.770;2022-07-29T12:28:10;28.60;1.00
8424;DHT22;4249;49.072;9.770;2022-07-29T12:31:00;28.70;1.00
8424;DHT22;4249;49.072;9.770;2022-07-29T12:33:52;29.00;1.00
8424;DHT22;4249;49.072;9.770;2022-07-29T12:36:41;29.00;1.00
8424;DHT22;4249;49.072;9.770;2022-07-29T12:39:28;29.00;1.00
8424;DHT22;4249;49.072;9.770;2022-07-29T12:42:16;29.40;1.00
8424;DHT22;4249;49.072;9.770;2022-07-29T12:45:05;29.50;1.00
8424;DHT22;4249;49.072;9.770;2022-07-29T12:47:54;29.70;1.00
8424;DHT22;4249;49.072;9.770;2022-07-29T12:50:58;30.00;1.00
8424;DHT22;4249;49.072;9.770;2022-07-29T12:54:04;30.00;1.00
8424;DHT22;4249;49.072;9.770;2022-07-29T12:56:59;30.00;1.00
8424;DHT22;4249;49.072;9.770;2022-07-29T13:00:03;30.00;1.00
8424;DHT22;4249;49.072;9.770;2022-07-29T13:02:57;30.00;1.00
8424;DHT22;4249;49.072;9.770;2022-07-29T13:05:45;29.60;1.00
8424;DHT22;4249;49.072;9.770;2022-07-29T13:08:33;29.50;1.00
8424;DHT22;4249;49.072;9.770;2022-07-29T13:11:30;29.60;1.00
8424;DHT22;4249;49.072;9.770;2022-07-29T13:14:30;29.80;1.00
8424;DHT22;4249;49.072;9.770;2022-07-29T13:17:19;29.80;1.00
8424;DHT22;4249;49.072;9.770;2022-07-29T13:20:11;30.00;1.00
8424;DHT22;4249;49.072;9.770;2022-07-29T13:23:00;30.10;1.00
8424;DHT22;4249;49.072;9.770;2022-07-29T13:25:47;30.30;1.00
8424;DHT22;4249;49.072;9.770;2022-07-29T13:28:35;30.20;1.00
8424;DHT22;4249;49.072;9.770;2022-07-29T13:31:22;30.10;1.00
8424;DHT22;4249;49.072;9.770;2022-07-29T13:34:10;30.10;1.00
8424;DHT22;4249;49.072;9.770;2022-07-29T13:36:59;29.90;1.00
8424;DHT22;4249;49.072;9.770;2022-07-29T13:39:46;29.90;1.00
8424;DHT22;4249;49.072;9.770;2022-07-29T13:42:34;29.70;1.00
8424;DHT22;4249;49.072;9.770;2022-07-29T13:45:22;29.60;1.00
8424;DHT22;4249;49.072;9.770;2022-07-29T13:48:09;29.50;1.00
8424;DHT22;4249;49.072;9.770;2022-07-29T13:50:56;29.70;1.00
8424;DHT22;4249;49.072;9.770;2022-07-29T13:53:45;29.80;1.00
8424;DHT22;4249;49.072;9.770;2022-07-29T13:56:32;29.70;1.00
8424;DHT22;4249;49.072;9.770;2022-07-29T13:59:20;29.40;1.00
8424;DHT22;4249;49.072;9.770;2022-07-29T14:02:07;29.10;1.00
8424;DHT22;4249;49.072;9.770;2022-07-29T14:04:55;29.30;1.00
8424;DHT22;4249;49.072;9.770;2022-07-29T14:07:43;29.20;1.00
8424;DHT22;4249;49.072;9.770;2022-07-29T14:10:31;29.20;1.00
8424;DHT22;4249;49.072;9.770;2022-07-29T14:13:18;29.10;1.00
8424;DHT22;4249;49.072;9.770;2022-07-29T14:16:06;28.90;1.00
8424;DHT22;4249;49.072;9.770;2022-07-29T14:18:54;28.70;1.00
8424;DHT22;4249;49.072;9.770;2022-07-29T14:21:41;28.60;1.00
8424;DHT22;4249;49.072;9.770;2022-07-29T14:24:28;28.50;1.00
8424;DHT22;4249;49.072;9.770;2022-07-29T14:27:17;28.40;1.00
8424;DHT22;4249;49.072;9.770;2022-07-29T14:30:06;28.60;1.00
8424;DHT22;4249;49.072;9.770;2022-07-29T14:32:53;28.50;1.00
8424;DHT22;4249;49.072;9.770;2022-07-29T14:35:40;28.40;1.00
8424;DHT22;4249;49.072;9.770;2022-07-29T14:38:27;28.30;1.00
8424;DHT22;4249;49.072;9.770;2022-07-29T14:41:15;28.30;1.00
8424;DHT22;4249;49.072;9.770;2022-07-29T14:44:04;28.30;1.00
8424;DHT22;4249;49.072;9.770;2022-07-29T14:46:51;28.20;1.00
8424;DHT22;4249;49.072;9.770;2022-07-29T14:49:38;28.10;1.00
8424;DHT22;4249;49.072;9.770;2022-07-29T14:52:25;28.00;1.00
8424;DHT22;4249;49.072;9.770;2022-07-29T14:55:12;28.00;1.00
8424;DHT22;4249;49.072;9.770;2022-07-29T14:58:00;27.90;1.00
8424;DHT22;4249;49.072;9.770;2022-07-29T15:00:48;27.80;1.00
8424;DHT22;4249;49.072;9.770;2022-07-29T15:03:35;27.70;1.00
8424;DHT22;4249;49.072;9.770;2022-07-29T15:06:22;27.70;1.00
8424;DHT22;4249;49.072;9.770;2022-07-29T15:09:10;27.70;1.00
8424;DHT22;4249;49.072;9.770;2022-07-29T15:11:57;27.70;1.00
8424;DHT22;4249;49.072;9.770;2022-07-29T15:14:44;27.50;1.00
8424;DHT22;4249;49.072;9.770;2022-07-29T15:17:33;27.50;1.00
8424;DHT22;4249;49.072;9.770;2022-07-29T15:20:20;27.40;1.00
8424;DHT22;4249;49.072;9.770;2022-07-29T15:23:11;27.50;1.00
8424;DHT22;4249;49.072;9.770;2022-07-29T15:25:58;27.60;1.00
8424;DHT22;4249;49.072;9.770;2022-07-29T15:28:46;27.70;1.00
8424;DHT22;4249;49.072;9.770;2022-07-29T15:31:33;27.70;1.00
8424;DHT22;4249;49.072;9.770;2022-07-29T15:34:22;27.80;1.00
8424;DHT22;4249;49.072;9.770;2022-07-29T15:37:09;27.80;1.00
8424;DHT22;4249;49.072;9.770;2022-07-29T15:39:57;27.70;1.00
8424;DHT22;4249;49.072;9.770;2022-07-29T15:42:44;27.80;1.00
8424;DHT22;4249;49.072;9.770;2022-07-29T15:45:35;27.90;1.00
8424;DHT22;4249;49.072;9.770;2022-07-29T15:48:23;27.80;1.00
8424;DHT22;4249;49.072;9.770;2022-07-29T15:51:11;27.70;1.00
8424;DHT22;4249;49.072;9.770;2022-07-29T15:54:00;27.50;1.00
8424;DHT22;4249;49.072;9.770;2022-07-29T15:56:47;27.40;1.00
8424;DHT22;4249;49.072;9.770;2022-07-29T15:59:34;27.30;1.00
8424;DHT22;4249;49.072;9.770;2022-07-29T16:02:22;26.90;1.00
8424;DHT22;4249;49.072;9.770;2022-07-29T16:05:09;26.60;1.00
8424;DHT22;4249;49.072;9.770;2022-07-29T16:07:58;26.40;1.00
8424;DHT22;4249;49.072;9.770;2022-07-29T16:10:45;26.20;1.00
8424;DHT22;4249;49.072;9.770;2022-07-29T16:13:32;26.10;1.00
8424;DHT22;4249;49.072;9.770;2022-07-29T16:16:20;25.90;1.00
8424;DHT22;4249;49.072;9.770;2022-07-29T16:19:07;25.70;1.00
8424;DHT22;4249;49.072;9.770;2022-07-29T16:21:55;25.70;1.00
8424;DHT22;4249;49.072;9.770;2022-07-29T16:24:43;25.80;1.00
8424;DHT22;4249;49.072;9.770;2022-07-29T16:27:31;25.70;1.00
8424;DHT22;4249;49.072;9.770;2022-07-29T16:30:18;25.80;1.00
8424;DHT22;4249;49.072;9.770;2022-07-29T16:33:05;25.80;1.00
8424;DHT22;4249;49.072;9.770;2022-07-29T16:35:53;25.70;1.00
8424;DHT22;4249;49.072;9.770;2022-07-29T16:38:40;25.70;1.00
8424;DHT22;4249;49.072;9.770;2022-07-29T16:41:29;25.70;1.00
8424;DHT22;4249;49.072;9.770;2022-07-29T16:44:16;25.70;1.00
8424;DHT22;4249;49.072;9.770;2022-07-29T16:47:03;25.70;1.00
8424;DHT22;4249;49.072;9.770;2022-07-29T16:49:50;25.70;1.00
8424;DHT22;4249;49.072;9.770;2022-07-29T16:52:38;25.70;1.00
8424;DHT22;4249;49.072;9.770;2022-07-29T16:55:25;25.70;1.00
8424;DHT22;4249;49.072;9.770;2022-07-29T16:58:14;25.60;1.00
8424;DHT22;4249;49.072;9.770;2022-07-29T17:01:01;25.60;1.00
8424;DHT22;4249;49.072;9.770;2022-07-29T17:03:48;25.60;1.00
8424;DHT22;4249;49.072;9.770;2022-07-29T17:06:54;25.60;1.00
8424;DHT22;4249;49.072;9.770;2022-07-29T17:09:41;25.70;1.00
8424;DHT22;4249;49.072;9.770;2022-07-29T17:12:29;25.70;1.00
8424;DHT22;4249;49.072;9.770;2022-07-29T17:15:17;25.60;1.00
8424;DHT22;4249;49.072;9.770;2022-07-29T17:18:04;25.70;1.00
8424;DHT22;4249;49.072;9.770;2022-07-29T17:20:53;25.70;1.00
8424;DHT22;4249;49.072;9.770;2022-07-29T17:23:40;25.70;1.00
8424;DHT22;4249;49.072;9.770;2022-07-29T17:26:27;25.50;1.00
8424;DHT22;4249;49.072;9.770;2022-07-29T17:29:15;25.40;1.00
8424;DHT22;4249;49.072;9.770;2022-07-29T17:32:04;25.30;1.00
8424;DHT22;4249;49.072;9.770;2022-07-29T17:34:51;25.30;1.00
8424;DHT22;4249;49.072;9.770;2022-07-29T17:37:38;25.20;1.00
8424;DHT22;4249;49.072;9.770;2022-07-29T17:40:25;25.00;1.00
8424;DHT22;4249;49.072;9.770;2022-07-29T17:43:13;24.90;1.00
8424;DHT22;4249;49.072;9.770;2022-07-29T17:46:00;24.80;1.00
8424;DHT22;4249;49.072;9.770;2022-07-29T17:48:50;24.80;1.00
8424;DHT22;4249;49.072;9.770;2022-07-29T17:51:37;24.70;1.00
8424;DHT22;4249;49.072;9.770;2022-07-29T17:54:24;24.70;1.00
8424;DHT22;4249;49.072;9.770;2022-07-29T17:57:11;24.70;1.00
8424;DHT22;4249;49.072;9.770;2022-07-29T17:59:59;24.60;1.00
8424;DHT22;4249;49.072;9.770;2022-07-29T18:02:46;24.50;1.00
8424;DHT22;4249;49.072;9.770;2022-07-29T18:05:35;24.40;1.00
8424;DHT22;4249;49.072;9.770;2022-07-29T18:08:22;24.20;1.00
8424;DHT22;4249;49.072;9.770;2022-07-29T18:11:10;24.20;1.00
8424;DHT22;4249;49.072;9.770;2022-07-29T18:13:58;24.10;1.00
8424;DHT22;4249;49.072;9.770;2022-07-29T18:16:45;23.90;1.00
8424;DHT22;4249;49.072;9.770;2022-07-29T18:19:32;23.80;1.00
8424;DHT22;4249;49.072;9.770;2022-07-29T18:22:21;23.70;1.00
8424;DHT22;4249;49.072;9.770;2022-07-29T18:25:08;23.60;1.00
8424;DHT22;4249;49.072;9.770;2022-07-29T18:27:56;23.60;1.00